createdAt,value
2023-03-29T00:00:12.512Z,11.65
2023-03-29T00:02:42.585Z,8.23
2023-03-29T00:05:13.229Z,11.40
2023-03-29T00:07:41.774Z,13.23
2023-03-29T00:10:11.286Z,9.98
2023-03-29T00:15:09.067Z,9.27
2023-03-29T00:17:37.177Z,10.10
2023-03-29T00:20:10.245Z,11.32
2023-03-29T00:22:39.843Z,9.15
2023-03-29T00:27:36.702Z,6.78
2023-03-29T00:30:05.509Z,7.68
2023-03-29T00:32:34.403Z,8.38
2023-03-29T00:35:02.668Z,12.68
2023-03-29T00:37:32.112Z,9.05
2023-03-29T00:42:28.211Z,7.03
2023-03-29T00:44:59.458Z,12.20
2023-03-29T00:47:30.963Z,12.02
2023-03-29T00:50:02.916Z,9.45
2023-03-29T00:52:34.637Z,10.13
2023-03-29T00:55:10.057Z,9.82
2023-03-29T00:57:40.642Z,9.05
2023-03-29T01:00:11.007Z,9.23
2023-03-29T01:02:43.217Z,9.30
2023-03-29T01:05:17.487Z,11.85
2023-03-29T01:07:53.769Z,8.02
2023-03-29T01:10:28.560Z,7.53
2023-03-29T01:13:02.515Z,9.75
2023-03-29T01:15:31.479Z,8.55
2023-03-29T01:18:01.972Z,13.52
2023-03-29T01:20:50.888Z,14.23
2023-03-29T01:23:38.147Z,8.60
2023-03-29T01:26:15.940Z,8.70
2023-03-29T01:28:52.608Z,10.63
2023-03-29T01:31:25.574Z,11.98
2023-03-29T01:33:59.944Z,7.95
2023-03-29T01:36:34.985Z,12.70
2023-03-29T01:39:07.034Z,8.98
2023-03-29T01:41:42.703Z,5.50
2023-03-29T01:44:15.464Z,9.52
2023-03-29T01:46:47.834Z,5.43
2023-03-29T01:49:22.865Z,5.10
2023-03-29T01:51:56.148Z,5.82
2023-03-29T01:54:28.796Z,3.95
2023-03-29T01:56:58.188Z,7.10
2023-03-29T02:02:00.754Z,5.88
2023-03-29T02:04:34.259Z,4.60
2023-03-29T02:07:04.924Z,7.80
2023-03-29T02:09:34.759Z,3.95
2023-03-29T02:12:04.154Z,4.47
2023-03-29T02:14:33.901Z,6.20
2023-03-29T02:17:18.235Z,7.28
2023-03-29T02:19:50.350Z,8.43
2023-03-29T02:22:23.890Z,8.60
2023-03-29T02:24:59.083Z,7.05
2023-03-29T02:27:29.093Z,9.25
2023-03-29T02:29:59.062Z,10.65
2023-03-29T02:32:35.100Z,7.88
2023-03-29T02:35:08.382Z,7.40
2023-03-29T02:37:40.969Z,9.52
2023-03-29T02:40:12.650Z,7.55
2023-03-29T02:42:42.100Z,6.35
2023-03-29T02:45:14.100Z,8.93
2023-03-29T02:47:46.309Z,5.72
2023-03-29T02:50:15.075Z,7.47
2023-03-29T02:52:52.221Z,5.00
2023-03-29T02:55:23.808Z,7.15
2023-03-29T02:57:51.965Z,7.32
2023-03-29T03:00:23.232Z,8.45
2023-03-29T03:02:52.169Z,11.73
2023-03-29T03:05:20.414Z,7.63
2023-03-29T03:07:48.493Z,9.70
2023-03-29T03:10:16.652Z,14.68
2023-03-29T03:12:44.695Z,6.88
2023-03-29T03:15:13.424Z,11.73
2023-03-29T03:17:42.943Z,7.72
2023-03-29T03:20:13.773Z,11.38
2023-03-29T03:22:43.993Z,7.22
2023-03-29T03:25:13.086Z,7.05
2023-03-29T03:27:41.303Z,8.57
2023-03-29T03:30:11.006Z,11.20
2023-03-29T03:32:39.244Z,9.10
2023-03-29T03:35:09.933Z,6.90
2023-03-29T03:37:38.517Z,12.65
2023-03-29T03:40:11.884Z,5.60
2023-03-29T03:42:41.045Z,10.68
2023-03-29T03:45:10.810Z,19.45
2023-03-29T03:47:39.383Z,17.33
2023-03-29T03:50:11.548Z,15.85
2023-03-29T03:52:39.658Z,9.65
2023-03-29T03:55:08.258Z,8.80
2023-03-29T03:57:37.452Z,5.80
2023-03-29T04:00:19.109Z,11.02
2023-03-29T04:02:48.466Z,7.82
2023-03-29T04:05:18.270Z,9.15
2023-03-29T04:07:46.439Z,5.95
2023-03-29T04:10:14.581Z,9.02
2023-03-29T04:12:42.847Z,13.48
2023-03-29T04:15:12.134Z,9.52
2023-03-29T04:17:40.563Z,10.88
2023-03-29T04:20:11.609Z,9.23
2023-03-29T04:22:41.867Z,8.70
2023-03-29T04:25:11.648Z,8.68
2023-03-29T04:27:40.290Z,8.85
2023-03-29T04:30:09.500Z,8.38
2023-03-29T04:32:37.750Z,6.93
2023-03-29T04:35:06.577Z,10.63
2023-03-29T04:37:35.112Z,12.02
2023-03-29T04:40:09.615Z,10.50
2023-03-29T04:42:38.021Z,11.82
2023-03-29T04:45:07.307Z,13.27
2023-03-29T04:47:36.488Z,8.35
2023-03-29T04:50:05.144Z,11.95
2023-03-29T04:52:33.440Z,8.13
2023-03-29T04:55:02.018Z,8.85
2023-03-29T04:57:31.528Z,7.23
2023-03-29T05:02:27.520Z,8.35
2023-03-29T05:04:56.754Z,12.50
2023-03-29T05:07:24.870Z,9.57
2023-03-29T05:09:53.354Z,9.52
2023-03-29T05:12:21.394Z,11.70
2023-03-29T05:14:50.851Z,7.35
2023-03-29T05:17:19.017Z,9.30
2023-03-29T05:19:47.884Z,6.88
2023-03-29T05:22:16.616Z,9.52
2023-03-29T05:24:44.699Z,12.70
2023-03-29T05:27:13.481Z,10.05
2023-03-29T05:29:41.816Z,9.88
2023-03-29T05:32:11.443Z,12.25
2023-03-29T05:34:39.604Z,11.32
2023-03-29T05:37:07.760Z,12.68
2023-03-29T05:39:37.994Z,12.85
2023-03-29T05:42:06.595Z,14.00
2023-03-29T05:44:34.721Z,14.20
2023-03-29T05:47:02.751Z,12.05
2023-03-29T05:49:32.707Z,20.70
2023-03-29T05:52:00.862Z,22.80
2023-03-29T05:54:28.938Z,29.65
2023-03-29T05:56:57.050Z,29.60
2023-03-29T05:59:28.274Z,20.13
2023-03-29T06:01:56.716Z,22.88
2023-03-29T06:04:25.413Z,25.52
2023-03-29T06:06:55.146Z,26.52
2023-03-29T06:11:51.234Z,17.20
2023-03-29T06:14:19.460Z,17.10
2023-03-29T06:16:47.558Z,15.00
2023-03-29T06:19:16.000Z,16.23
2023-03-29T06:21:44.093Z,13.98
2023-03-29T06:24:13.484Z,14.98
2023-03-29T06:26:42.038Z,16.33
2023-03-29T06:29:10.291Z,14.53
2023-03-29T06:31:38.416Z,19.75
2023-03-29T06:34:06.648Z,27.20
2023-03-29T06:36:35.192Z,14.23
2023-03-29T06:39:06.456Z,10.20
2023-03-29T06:41:36.165Z,11.40
2023-03-29T06:44:05.007Z,12.48
2023-03-29T06:46:33.135Z,10.80
2023-03-29T06:49:01.399Z,16.85
2023-03-29T06:51:29.443Z,15.45
2023-03-29T06:53:57.526Z,18.10
2023-03-29T06:56:25.624Z,21.33
2023-03-29T06:58:55.058Z,14.43
2023-03-29T07:01:23.922Z,15.25
2023-03-29T07:03:52.052Z,8.95
2023-03-29T07:06:20.480Z,8.50
2023-03-29T07:08:52.267Z,6.80
2023-03-29T07:11:20.551Z,6.57
2023-03-29T07:13:49.086Z,5.93
2023-03-29T07:16:19.379Z,6.67
2023-03-29T07:18:47.649Z,5.82
2023-03-29T07:21:15.717Z,5.63
2023-03-29T07:23:43.975Z,6.53
2023-03-29T07:26:12.112Z,9.05
2023-03-29T07:28:40.452Z,6.80
2023-03-29T07:31:11.839Z,3.00
2023-03-29T07:33:41.401Z,6.15
2023-03-29T07:38:38.512Z,16.20
2023-03-29T07:41:08.250Z,10.95
2023-03-29T07:43:36.808Z,9.38
2023-03-29T07:46:06.713Z,8.60
2023-03-29T07:48:37.144Z,9.30
2023-03-29T07:51:07.589Z,12.98
2023-03-29T07:53:35.664Z,13.32
2023-03-29T07:56:04.540Z,4.05
2023-03-29T07:58:32.599Z,4.63
2023-03-29T08:01:01.465Z,12.10
2023-03-29T08:03:29.809Z,9.20
2023-03-29T08:05:57.850Z,6.70
2023-03-29T08:08:27.924Z,8.05
2023-03-29T08:10:56.291Z,7.03
2023-03-29T08:13:24.359Z,5.22
2023-03-29T08:15:52.611Z,8.30
2023-03-29T08:18:20.740Z,5.63
2023-03-29T08:20:48.791Z,10.18
2023-03-29T08:23:16.905Z,12.55
2023-03-29T08:25:47.090Z,6.60
2023-03-29T08:28:15.222Z,4.90
2023-03-29T08:30:43.317Z,4.57
2023-03-29T08:33:12.156Z,4.03
2023-03-29T08:35:40.276Z,2.53
2023-03-29T08:38:08.440Z,3.15
2023-03-29T08:40:37.177Z,5.18
2023-03-29T08:43:32.089Z,3.97
2023-03-29T08:46:09.979Z,6.38
2023-03-29T08:48:42.205Z,3.45
2023-03-29T08:51:21.476Z,3.72
2023-03-29T08:53:53.492Z,6.10
2023-03-29T08:56:26.188Z,3.75
2023-03-29T08:58:57.201Z,3.65
2023-03-29T09:01:29.614Z,5.80
2023-03-29T09:04:05.798Z,5.53
2023-03-29T09:06:33.900Z,3.97
2023-03-29T09:09:02.359Z,6.85
2023-03-29T09:11:45.841Z,6.15
2023-03-29T09:14:33.039Z,3.92
2023-03-29T09:17:06.994Z,6.10
2023-03-29T09:19:40.427Z,5.88
2023-03-29T09:22:17.406Z,4.22
2023-03-29T09:24:57.913Z,6.97
2023-03-29T09:27:31.407Z,6.00
2023-03-29T09:30:16.851Z,4.90
2023-03-29T09:32:52.763Z,3.70
2023-03-29T09:35:24.531Z,3.30
2023-03-29T09:37:54.961Z,4.82
2023-03-29T09:40:28.330Z,4.40
2023-03-29T09:42:57.857Z,5.82
2023-03-29T09:47:58.708Z,3.15
2023-03-29T09:50:32.348Z,6.22
2023-03-29T09:53:01.200Z,2.72
2023-03-29T09:55:32.321Z,2.67
2023-03-29T09:58:03.017Z,2.90
2023-03-29T10:00:32.545Z,4.57
2023-03-29T10:05:32.601Z,6.25
2023-03-29T10:08:02.369Z,3.58
2023-03-29T10:10:32.991Z,4.50
2023-03-29T10:13:05.374Z,2.33
2023-03-29T10:15:34.880Z,3.25
2023-03-29T10:20:35.547Z,2.97
2023-03-29T10:23:03.619Z,3.50
2023-03-29T10:25:33.874Z,4.38
2023-03-29T10:28:07.481Z,2.47
2023-03-29T10:30:39.173Z,4.22
2023-03-29T10:33:17.309Z,4.57
2023-03-29T10:35:45.734Z,4.75
2023-03-29T10:38:15.935Z,2.63
2023-03-29T10:40:47.390Z,2.53
2023-03-29T10:43:22.737Z,4.30
2023-03-29T10:45:54.660Z,3.13
2023-03-29T10:48:28.766Z,3.20
2023-03-29T10:51:01.016Z,3.13
2023-03-29T10:53:32.511Z,2.42
2023-03-29T10:56:13.774Z,3.53
2023-03-29T10:58:58.079Z,2.90
2023-03-29T11:01:34.937Z,2.42
2023-03-29T11:04:22.950Z,1.95
2023-03-29T11:07:14.611Z,1.70
2023-03-29T11:09:51.269Z,3.42
2023-03-29T11:12:27.112Z,2.20
2023-03-29T11:15:08.920Z,2.88
2023-03-29T11:17:52.812Z,3.25
2023-03-29T11:20:32.936Z,2.58
2023-03-29T11:23:12.868Z,3.35
2023-03-29T11:25:53.259Z,2.20
2023-03-29T11:28:28.608Z,2.22
2023-03-29T11:31:03.282Z,4.28
2023-03-29T11:33:44.937Z,3.78
2023-03-29T11:36:18.951Z,3.08
2023-03-29T11:38:55.678Z,2.33
2023-03-29T11:41:27.736Z,2.97
2023-03-29T11:44:02.428Z,7.85
2023-03-29T11:46:34.626Z,10.05
2023-03-29T11:49:09.985Z,4.03
2023-03-29T11:51:43.703Z,12.40
2023-03-29T11:54:19.039Z,8.95
2023-03-29T11:56:52.708Z,5.53
2023-03-29T11:59:27.190Z,7.43
2023-03-29T12:01:59.897Z,2.42
2023-03-29T12:04:35.162Z,2.13
2023-03-29T12:07:12.654Z,4.70
2023-03-29T12:09:46.705Z,16.65
2023-03-29T12:12:19.976Z,21.15
2023-03-29T12:15:00.103Z,9.52
2023-03-29T12:17:33.155Z,3.20
2023-03-29T12:20:08.099Z,27.45
2023-03-29T12:22:37.939Z,13.80
2023-03-29T12:25:10.370Z,5.20
2023-03-29T12:27:46.072Z,4.10
2023-03-29T12:30:43.693Z,2.40
2023-03-29T12:33:42.278Z,4.53
2023-03-29T12:36:41.623Z,2.08
2023-03-29T12:39:15.403Z,3.17
2023-03-29T12:41:48.760Z,3.78
2023-03-29T12:44:18.428Z,3.50
2023-03-29T12:46:46.625Z,3.50
2023-03-29T12:49:22.674Z,2.88
2023-03-29T12:51:53.018Z,5.10
2023-03-29T12:54:25.030Z,5.50
2023-03-29T12:56:58.537Z,3.25
2023-03-29T12:59:35.077Z,2.55
2023-03-29T13:02:08.586Z,4.10
2023-03-29T13:04:51.213Z,3.45
2023-03-29T13:07:46.324Z,3.65
2023-03-29T13:10:37.205Z,5.65
2023-03-29T13:13:19.934Z,5.93
2023-03-29T13:15:49.168Z,3.17
2023-03-29T13:18:40.060Z,5.38
2023-03-29T13:21:18.051Z,7.32
2023-03-29T13:23:58.234Z,3.47
2023-03-29T13:26:45.643Z,6.03
2023-03-29T13:29:34.404Z,6.05
2023-03-29T13:32:18.585Z,4.85
2023-03-29T13:34:52.303Z,5.18
2023-03-29T13:37:32.903Z,4.40
2023-03-29T13:40:02.367Z,7.90
2023-03-29T13:45:17.265Z,4.00
2023-03-29T13:47:58.676Z,4.53
2023-03-29T13:50:36.699Z,6.47
2023-03-29T13:53:11.105Z,5.15
2023-03-29T13:55:46.588Z,3.63
2023-03-29T13:58:21.691Z,5.50
2023-03-29T14:00:54.983Z,4.10
2023-03-29T14:03:29.671Z,4.47
2023-03-29T14:06:01.308Z,3.45
2023-03-29T14:08:34.052Z,11.10
2023-03-29T14:11:07.855Z,5.45
2023-03-29T14:13:36.446Z,4.25
2023-03-29T14:16:09.041Z,6.87
2023-03-29T14:18:40.438Z,8.65
2023-03-29T14:21:09.320Z,8.88
2023-03-29T14:23:38.466Z,6.93
2023-03-29T14:26:11.550Z,6.30
2023-03-29T14:28:46.415Z,4.22
2023-03-29T14:31:21.887Z,7.38
2023-03-29T14:33:53.561Z,5.28
2023-03-29T14:36:23.166Z,5.15
2023-03-29T14:38:54.108Z,4.50
2023-03-29T14:41:24.480Z,5.03
2023-03-29T14:43:52.603Z,3.60
2023-03-29T14:46:22.955Z,5.00
2023-03-29T14:48:51.217Z,4.50
2023-03-29T14:51:20.098Z,5.47
2023-03-29T14:53:49.400Z,4.95
2023-03-29T14:56:24.036Z,4.25
2023-03-29T14:58:55.734Z,5.97
2023-03-29T15:01:26.886Z,5.90
2023-03-29T15:03:57.267Z,7.45
2023-03-29T15:06:26.386Z,7.45
2023-03-29T15:09:05.266Z,6.65
2023-03-29T15:11:35.117Z,9.27
2023-03-29T15:14:06.862Z,6.82
2023-03-29T15:16:38.173Z,6.82
2023-03-29T15:19:06.388Z,4.30
2023-03-29T15:21:36.145Z,7.47
2023-03-29T15:24:06.091Z,6.45
2023-03-29T15:26:37.648Z,5.28
2023-03-29T15:29:12.987Z,10.35
2023-03-29T15:31:42.837Z,6.20
2023-03-29T15:34:13.798Z,6.25
2023-03-29T15:36:43.548Z,7.57
2023-03-29T15:39:14.028Z,6.40
2023-03-29T15:41:42.543Z,7.78
2023-03-29T15:44:14.050Z,10.68
2023-03-29T15:46:42.384Z,8.88
2023-03-29T15:49:12.367Z,6.35
2023-03-29T15:51:41.211Z,7.82
2023-03-29T15:54:09.332Z,7.50
2023-03-29T15:56:44.592Z,7.28
2023-03-29T15:59:14.420Z,7.55
2023-03-29T16:01:42.591Z,9.43
2023-03-29T16:04:13.966Z,13.13
2023-03-29T16:06:42.694Z,12.85
2023-03-29T16:09:12.106Z,9.82
2023-03-29T16:11:41.284Z,9.55
2023-03-29T16:14:19.955Z,6.65
2023-03-29T16:16:48.097Z,8.67
2023-03-29T16:19:16.386Z,6.65
2023-03-29T16:21:44.907Z,7.50
2023-03-29T16:24:16.279Z,8.63
2023-03-29T16:26:44.463Z,8.85
2023-03-29T16:29:14.009Z,9.38
2023-03-29T16:34:12.666Z,9.68
2023-03-29T16:36:40.938Z,10.80
2023-03-29T16:39:10.610Z,10.50
2023-03-29T16:41:38.853Z,8.75
2023-03-29T16:44:07.118Z,5.95
2023-03-29T16:46:36.582Z,9.65
2023-03-29T16:51:35.938Z,9.93
2023-03-29T16:54:04.068Z,7.03
2023-03-29T16:56:32.110Z,12.25
2023-03-29T16:59:00.138Z,8.48
2023-03-29T17:01:29.152Z,10.93
2023-03-29T17:03:58.640Z,16.25
2023-03-29T17:06:27.566Z,16.90
2023-03-29T17:08:55.693Z,19.83
2023-03-29T17:11:23.844Z,20.08
2023-03-29T17:13:51.949Z,28.90
2023-03-29T17:16:20.235Z,19.70
2023-03-29T17:18:48.331Z,22.17
2023-03-29T17:21:17.795Z,20.63
2023-03-29T17:26:14.164Z,15.13
2023-03-29T17:28:43.509Z,13.68
2023-03-29T17:31:11.646Z,11.48
2023-03-29T17:33:39.716Z,9.55
2023-03-29T17:36:08.832Z,10.98
2023-03-29T17:38:38.433Z,9.48
2023-03-29T17:41:06.999Z,9.95
2023-03-29T17:43:35.102Z,9.20
2023-03-29T17:46:03.440Z,10.43
2023-03-29T17:48:34.851Z,15.40
2023-03-29T17:51:02.924Z,9.85
2023-03-29T17:53:31.181Z,8.63
2023-03-29T17:56:00.719Z,10.13
2023-03-29T17:58:28.887Z,10.20
2023-03-29T18:00:56.965Z,11.50
2023-03-29T18:03:25.079Z,10.32
2023-03-29T18:05:54.185Z,8.43
2023-03-29T18:08:22.256Z,9.40
2023-03-29T18:10:50.299Z,9.18
2023-03-29T18:13:25.267Z,11.32
2023-03-29T18:15:56.500Z,10.82
2023-03-29T18:18:24.724Z,10.73
2023-03-29T18:20:52.853Z,15.52
2023-03-29T18:23:20.928Z,12.82
2023-03-29T18:25:48.976Z,12.55
2023-03-29T18:28:18.180Z,19.05
2023-03-29T18:30:51.637Z,16.63
2023-03-29T18:33:19.708Z,13.95
2023-03-29T18:35:50.531Z,15.75
2023-03-29T18:38:19.365Z,17.17
2023-03-29T18:40:48.684Z,19.92
2023-03-29T18:43:17.137Z,20.23
2023-03-29T18:45:47.402Z,20.05
2023-03-29T18:48:15.876Z,15.32
2023-03-29T18:50:46.388Z,9.85
2023-03-29T18:53:14.661Z,12.55
2023-03-29T18:55:43.606Z,36.58
2023-03-29T18:58:12.404Z,47.00
2023-03-29T19:00:41.593Z,63.70
2023-03-29T19:03:11.371Z,47.28
2023-03-29T19:05:40.336Z,28.75
2023-03-29T19:08:09.166Z,21.67
2023-03-29T19:10:37.511Z,16.75
2023-03-29T19:13:06.095Z,12.15
2023-03-29T19:15:34.715Z,10.03
2023-03-29T19:18:03.042Z,16.63
2023-03-29T19:20:32.533Z,8.32
2023-03-29T19:23:01.798Z,7.07
2023-03-29T19:25:30.059Z,5.10
2023-03-29T19:27:58.718Z,6.82
2023-03-29T19:30:27.102Z,10.10
2023-03-29T19:32:55.189Z,10.43
2023-03-29T19:35:23.360Z,4.68
2023-03-29T19:37:52.833Z,4.03
2023-03-29T19:40:20.967Z,5.30
2023-03-29T19:42:49.028Z,9.73
2023-03-29T19:45:17.180Z,14.27
2023-03-29T19:47:47.580Z,15.70
2023-03-29T19:50:15.921Z,23.45
2023-03-29T19:52:43.964Z,27.05
2023-03-29T19:55:13.409Z,18.20
2023-03-29T19:57:42.467Z,18.90
2023-03-29T20:00:11.553Z,17.17
2023-03-29T20:02:39.615Z,13.55
2023-03-29T20:05:08.807Z,11.48
2023-03-29T20:07:36.912Z,7.05
2023-03-29T20:10:05.609Z,9.95
2023-03-29T20:12:35.048Z,16.17
2023-03-29T20:15:03.467Z,26.10
2023-03-29T20:17:31.846Z,26.15
2023-03-29T20:19:59.974Z,18.45
2023-03-29T20:22:30.633Z,15.45
2023-03-29T20:24:58.719Z,13.93
2023-03-29T20:27:29.173Z,8.95
2023-03-29T20:29:58.600Z,8.10
2023-03-29T20:32:26.704Z,7.70
2023-03-29T20:34:54.784Z,8.30
2023-03-29T20:37:25.974Z,7.72
2023-03-29T20:39:56.641Z,14.15
2023-03-29T20:42:28.756Z,9.77
2023-03-29T20:45:00.152Z,17.05
2023-03-29T20:47:29.420Z,10.93
2023-03-29T20:49:58.005Z,7.88
2023-03-29T20:52:26.163Z,7.18
2023-03-29T20:54:54.497Z,11.30
2023-03-29T20:57:22.635Z,7.47
2023-03-29T20:59:50.783Z,12.82
2023-03-29T21:02:24.258Z,13.90
2023-03-29T21:04:53.038Z,13.75
2023-03-29T21:07:22.369Z,17.15
2023-03-29T21:09:50.598Z,17.38
2023-03-29T21:12:20.114Z,12.35
2023-03-29T21:17:16.463Z,11.00
2023-03-29T21:19:46.147Z,12.25
2023-03-29T21:22:14.725Z,10.35
2023-03-29T21:24:42.798Z,12.40
2023-03-29T21:27:10.982Z,9.88
2023-03-29T21:29:39.058Z,12.85
2023-03-29T21:32:07.112Z,11.88
2023-03-29T21:34:35.303Z,16.30
2023-03-29T21:37:04.759Z,13.98
2023-03-29T21:42:01.596Z,8.32
2023-03-29T21:44:30.336Z,10.35
2023-03-29T21:46:59.631Z,11.95
2023-03-29T21:49:27.737Z,11.85
2023-03-29T21:51:56.777Z,13.02
2023-03-29T21:54:26.591Z,13.35
2023-03-29T21:56:54.686Z,13.73
2023-03-29T21:59:22.730Z,12.48
2023-03-29T22:01:50.974Z,9.98
2023-03-29T22:04:29.560Z,10.93
2023-03-29T22:07:03.802Z,13.95
2023-03-29T22:09:34.769Z,12.70
2023-03-29T22:12:03.367Z,13.38
2023-03-29T22:14:34.786Z,10.38
2023-03-29T22:17:02.922Z,13.50
2023-03-29T22:19:31.013Z,13.20
2023-03-29T22:22:01.394Z,13.50
2023-03-29T22:24:29.736Z,12.45
2023-03-29T22:26:59.278Z,14.80
2023-03-29T22:31:55.181Z,9.23
2023-03-29T22:34:23.331Z,10.05
2023-03-29T22:36:51.611Z,7.57
2023-03-29T22:39:19.676Z,7.07
2023-03-29T22:41:47.957Z,8.43
2023-03-29T22:44:17.375Z,7.38
2023-03-29T22:46:45.499Z,9.80
2023-03-29T22:49:13.660Z,7.32
2023-03-29T22:51:41.755Z,6.72
2023-03-29T22:54:09.820Z,9.18
2023-03-29T22:56:37.895Z,5.93
2023-03-29T22:59:06.469Z,14.27
2023-03-29T23:01:35.945Z,12.70
2023-03-29T23:04:04.297Z,13.00
2023-03-29T23:06:32.372Z,13.32
2023-03-29T23:09:00.434Z,13.45
2023-03-29T23:11:28.473Z,15.30
2023-03-29T23:13:56.518Z,12.18
2023-03-29T23:16:24.659Z,14.27
2023-03-29T23:18:54.125Z,16.88
2023-03-29T23:21:22.422Z,13.73
2023-03-29T23:23:50.648Z,13.60
2023-03-29T23:26:18.923Z,9.73
2023-03-29T23:28:46.999Z,12.38
2023-03-29T23:31:17.904Z,13.45
2023-03-29T23:33:46.428Z,12.45
2023-03-29T23:36:17.695Z,10.50
2023-03-29T23:38:47.785Z,12.73
2023-03-29T23:41:16.707Z,16.83
2023-03-29T23:43:47.426Z,12.82
2023-03-29T23:46:18.717Z,13.55
2023-03-29T23:48:47.381Z,14.75
2023-03-29T23:51:18.593Z,12.60
2023-03-29T23:53:47.365Z,14.23
2023-03-29T23:56:15.632Z,11.27
2023-03-29T23:58:44.403Z,13.23
